Time;durP1;ratioP1;P1;durP2;ratioP2;P2;SDS_P1;SDS_P2;PMS_P1;PMS_P2;Temp;Humidity;BMP_temperature;BMP_pressure;BME280_temperature;BME280_humidity;BME280_pressure;Samples;Min_cycle;Max_cycle;Signal;HPM_P1;HPM_P2
2024/02/18 00:01:42;;;;;;;6.00;1.40;;;7.40;99.90;;;;;;4967759;29;20505;-85
2024/02/18 00:04:11;;;;;;;1.40;1.00;;;7.50;99.90;;;;;;4957783;29;20826;-86
2024/02/18 00:06:38;;;;;;;2.00;1.33;;;7.50;99.90;;;;;;4955672;29;20454;-86
2024/02/18 00:09:05;;;;;;;2.07;1.33;;;7.60;99.90;;;;;;4955600;29;20449;-86
2024/02/18 00:11:32;;;;;;;1.40;1.30;;;7.60;99.90;;;;;;4955299;29;20577;-86
2024/02/18 00:13:59;;;;;;;1.37;1.07;;;7.60;99.90;;;;;;4955617;29;20947;-86
2024/02/18 00:16:25;;;;;;;1.43;1.20;;;7.60;99.90;;;;;;4955423;29;20434;-86
2024/02/18 00:18:52;;;;;;;2.00;1.13;;;7.60;99.90;;;;;;4955389;29;20486;-86
2024/02/18 00:21:20;;;;;;;2.93;1.33;;;7.70;99.90;;;;;;4955614;29;20466;-86
2024/02/18 00:23:47;;;;;;;2.33;1.30;;;7.70;99.90;;;;;;4955326;29;20441;-86
2024/02/18 00:26:14;;;;;;;2.13;1.30;;;7.70;99.90;;;;;;4955449;29;20461;-86
2024/02/18 00:28:40;;;;;;;1.37;1.00;;;7.70;99.90;;;;;;4955623;28;20940;-86
2024/02/18 00:31:07;;;;;;;3.37;1.10;;;7.80;99.90;;;;;;4955232;29;20462;-86
2024/02/18 00:33:34;;;;;;;4.73;3.03;;;7.80;99.90;;;;;;4955651;29;20473;-86
2024/02/18 00:36:00;;;;;;;3.13;1.70;;;7.80;99.90;;;;;;4957472;28;20450;-86
2024/02/18 00:38:28;;;;;;;7.13;1.93;;;7.80;99.90;;;;;;4959139;29;20488;-86
2024/02/18 00:40:56;;;;;;;2.80;1.40;;;7.90;99.90;;;;;;4959330;29;20474;-86
2024/02/18 00:43:23;;;;;;;2.80;1.20;;;7.80;99.90;;;;;;4959348;29;20446;-86
2024/02/18 00:45:50;;;;;;;1.57;0.93;;;7.80;99.90;;;;;;4959000;29;20952;-86
2024/02/18 00:48:17;;;;;;;2.00;1.20;;;7.80;99.90;;;;;;4959323;29;20446;-86
2024/02/18 00:50:44;;;;;;;1.90;1.07;;;7.90;99.90;;;;;;4959171;29;20501;-86
2024/02/18 00:53:12;;;;;;;1.00;0.70;;;7.90;99.90;;;;;;4959018;29;20438;-86
2024/02/18 00:55:43;;;;;;;1.43;1.03;;;8.00;99.90;;;;;;4959061;29;20544;-86
2024/02/18 00:58:10;;;;;;;1.20;0.70;;;7.90;99.90;;;;;;4959334;29;20439;-86
2024/02/18 01:00:37;;;;;;;2.33;1.40;;;7.90;99.90;;;;;;4958598;29;20458;-86
2024/02/18 01:03:04;;;;;;;1.63;1.10;;;8.00;99.90;;;;;;4958589;28;20453;-86
2024/02/18 01:05:31;;;;;;;2.33;1.10;;;8.00;99.90;;;;;;4958825;29;20458;-86
2024/02/18 01:07:58;;;;;;;2.57;1.60;;;8.10;99.90;;;;;;4958583;29;20449;-86
2024/02/18 01:10:24;;;;;;;2.57;1.40;;;8.10;99.90;;;;;;4958346;29;20482;-85
2024/02/18 01:12:53;;;;;;;3.03;1.20;;;8.10;99.90;;;;;;4959028;29;20426;-86
2024/02/18 01:15:19;;;;;;;5.07;1.87;;;8.10;99.90;;;;;;4958604;29;20810;-86
2024/02/18 01:17:46;;;;;;;1.00;1.00;;;8.00;99.90;;;;;;4958415;29;20444;-86
2024/02/18 01:20:13;;;;;;;1.17;1.07;;;8.00;99.90;;;;;;4958310;29;20486;-86
2024/02/18 01:22:39;;;;;;;2.20;1.33;;;8.00;99.90;;;;;;4958689;29;20473;-86
2024/02/18 01:25:08;;;;;;;1.00;0.90;;;8.00;99.90;;;;;;4958476;29;20450;-86
2024/02/18 01:27:34;;;;;;;3.20;1.00;;;7.90;99.90;;;;;;4958933;29;20461;-86
2024/02/18 01:30:03;;;;;;;1.80;1.53;;;7.90;99.90;;;;;;4958559;29;20466;-86
2024/02/18 01:32:29;;;;;;;1.03;0.80;;;7.90;99.90;;;;;;4958287;29;20449;-86
2024/02/18 01:34:56;;;;;;;1.23;1.00;;;7.90;99.90;;;;;;4958773;29;20455;-86
2024/02/18 01:37:23;;;;;;;1.50;1.40;;;7.90;99.90;;;;;;4958271;29;20932;-86
2024/02/18 01:39:50;;;;;;;1.63;0.93;;;7.90;99.90;;;;;;4957996;29;20505;-86
2024/02/18 01:42:16;;;;;;;0.63;0.63;;;7.90;99.90;;;;;;4958595;29;20525;-86
2024/02/18 01:44:43;;;;;;;1.13;1.00;;;7.90;99.90;;;;;;4958367;29;20442;-86
2024/02/18 01:47:11;;;;;;;2.07;1.47;;;7.90;99.90;;;;;;4957190;28;20455;-86
2024/02/18 01:49:39;;;;;;;1.43;1.23;;;7.90;99.90;;;;;;4957778;29;20470;-86
2024/02/18 01:52:06;;;;;;;2.20;2.10;;;7.80;99.90;;;;;;4958071;29;20450;-86
2024/02/18 01:54:34;;;;;;;1.63;1.00;;;7.60;99.90;;;;;;4957783;29;20445;-86
2024/02/18 01:57:02;;;;;;;2.10;1.43;;;7.60;99.90;;;;;;4957959;29;20814;-86
2024/02/18 01:59:30;;;;;;;1.43;1.10;;;7.50;99.90;;;;;;4957785;29;20548;-86
2024/02/18 02:01:57;;;;;;;5.80;1.17;;;7.50;99.90;;;;;;4961340;29;20439;-86
2024/02/18 02:04:26;;;;;;;2.93;1.00;;;7.60;99.90;;;;;;4961020;29;20434;-86
2024/02/18 02:06:54;;;;;;;2.80;1.47;;;7.70;99.90;;;;;;4957620;29;20458;-86
2024/02/18 02:09:21;;;;;;;3.90;1.10;;;7.70;99.90;;;;;;4957614;29;20841;-86
2024/02/18 02:11:48;;;;;;;4.17;1.50;;;7.70;99.90;;;;;;4957395;29;20478;-86
2024/02/18 02:14:16;;;;;;;1.70;1.00;;;7.60;99.90;;;;;;4957676;29;20462;-86
2024/02/18 02:16:43;;;;;;;1.50;1.13;;;7.70;99.90;;;;;;4961991;28;20450;-86
2024/02/18 02:19:10;;;;;;;0.93;0.93;;;7.60;99.90;;;;;;4970934;28;20870;-86
2024/02/18 02:21:38;;;;;;;2.10;1.00;;;7.60;99.90;;;;;;4957326;29;20442;-86
2024/02/18 02:24:05;;;;;;;2.20;1.60;;;7.60;99.90;;;;;;4957592;29;20453;-86
2024/02/18 02:26:35;;;;;;;1.67;1.33;;;7.60;99.90;;;;;;4957833;29;20446;-86
2024/02/18 02:29:12;;;;;;;1.53;1.40;;;7.60;99.90;;;;;;4957456;29;20446;-86
2024/02/18 02:31:39;;;;;;;1.20;1.00;;;7.60;99.90;;;;;;4957153;28;20976;-86
2024/02/18 02:34:06;;;;;;;0.80;0.80;;;7.60;99.90;;;;;;4957222;29;20461;-86
2024/02/18 02:36:32;;;;;;;1.27;1.23;;;7.50;99.90;;;;;;4957288;29;20566;-86
2024/02/18 02:38:59;;;;;;;3.00;1.00;;;7.50;99.90;;;;;;4957012;29;20497;-86
2024/02/18 02:41:26;;;;;;;0.93;0.70;;;7.50;99.90;;;;;;4957299;29;20453;-86
2024/02/18 02:43:52;;;;;;;0.73;0.73;;;7.50;99.90;;;;;;4957001;29;20457;-86
2024/02/18 02:46:21;;;;;;;1.37;1.00;;;7.50;99.90;;;;;;4957163;29;20457;-86
2024/02/18 02:48:48;;;;;;;2.10;1.20;;;7.50;99.90;;;;;;4956894;29;20442;-86
2024/02/18 02:51:14;;;;;;;3.50;1.70;;;7.40;99.90;;;;;;4956871;29;20462;-86
2024/02/18 02:53:41;;;;;;;2.20;1.17;;;7.50;99.90;;;;;;4957148;28;20477;-86
2024/02/18 02:56:08;;;;;;;1.37;1.07;;;7.50;99.90;;;;;;4956626;29;20461;-86
2024/02/18 02:58:35;;;;;;;11.23;2.30;;;7.40;99.90;;;;;;4956702;28;20955;-86
2024/02/18 03:01:02;;;;;;;3.30;1.07;;;7.40;99.90;;;;;;4956771;29;20481;-86
2024/02/18 03:03:30;;;;;;;4.20;1.40;;;7.40;99.90;;;;;;4956957;29;20482;-86
2024/02/18 03:05:57;;;;;;;2.57;1.47;;;7.40;99.90;;;;;;4956669;29;20820;-86
2024/02/18 03:08:23;;;;;;;1.73;1.30;;;7.30;99.90;;;;;;4956531;29;20446;-86
2024/02/18 03:10:49;;;;;;;1.33;1.10;;;7.20;99.90;;;;;;4955951;29;20482;-87
2024/02/18 03:13:16;;;;;;;2.53;1.93;;;7.10;99.90;;;;;;4956619;29;20457;-86
2024/02/18 03:15:43;;;;;;;3.23;1.20;;;7.00;99.90;;;;;;4956231;29;20213;-86
2024/02/18 03:18:10;;;;;;;5.90;2.50;;;6.90;99.90;;;;;;4956506;29;20457;-87
2024/02/18 03:20:38;;;;;;;2.23;1.17;;;6.80;99.90;;;;;;4956072;28;20490;-86
2024/02/18 03:23:06;;;;;;;1.37;1.27;;;6.70;99.90;;;;;;4956445;29;20450;-87
2024/02/18 03:25:33;;;;;;;1.20;1.10;;;6.70;99.90;;;;;;4956433;29;20547;-87
2024/02/18 03:28:00;;;;;;;1.37;1.10;;;6.60;99.90;;;;;;4956681;29;20458;-87
2024/02/18 03:30:28;;;;;;;1.23;0.80;;;6.50;99.90;;;;;;4956018;29;20983;-87
2024/02/18 03:32:54;;;;;;;1.17;0.80;;;6.50;99.90;;;;;;4956389;29;20446;-87
2024/02/18 03:35:27;;;;;;;2.60;1.27;;;6.40;99.90;;;;;;4956626;29;20457;-87
2024/02/18 03:37:55;;;;;;;3.60;2.30;;;6.30;99.90;;;;;;4955955;29;20932;-87
2024/02/18 03:40:22;;;;;;;3.17;1.30;;;6.30;99.90;;;;;;4955738;29;20911;-86
2024/02/18 03:42:49;;;;;;;2.00;1.23;;;6.30;99.90;;;;;;4956511;29;20450;-87
2024/02/18 03:45:16;;;;;;;4.30;1.87;;;6.20;99.90;;;;;;4955945;29;20446;-87
2024/02/18 03:47:43;;;;;;;2.17;1.70;;;6.20;99.90;;;;;;4956313;28;20458;-87
2024/02/18 03:50:14;;;;;;;2.70;1.83;;;6.20;99.90;;;;;;4955599;29;20467;-86
2024/02/18 03:52:42;;;;;;;1.23;1.13;;;6.20;99.90;;;;;;4956104;29;20433;-86
2024/02/18 03:55:11;;;;;;;0.77;0.77;;;6.20;99.90;;;;;;4956090;29;20810;-87
2024/02/18 03:57:38;;;;;;;3.40;1.73;;;6.10;99.90;;;;;;4956090;29;20450;-87
2024/02/18 04:00:07;;;;;;;1.60;1.50;;;6.00;99.90;;;;;;4955606;29;20494;-87
2024/02/18 04:02:35;;;;;;;1.33;1.13;;;6.00;99.90;;;;;;4955756;28;20442;-87
2024/02/18 04:05:03;;;;;;;0.83;0.80;;;6.00;99.90;;;;;;4955405;29;20501;-87
2024/02/18 04:07:29;;;;;;;0.90;0.87;;;6.00;99.90;;;;;;4955874;28;20455;-87
2024/02/18 04:09:56;;;;;;;1.77;1.40;;;6.00;99.90;;;;;;4955155;28;20833;-87
2024/02/18 04:12:24;;;;;;;6.67;2.13;;;6.00;99.90;;;;;;4955824;29;20439;-87
2024/02/18 04:14:51;;;;;;;1.40;1.23;;;5.90;99.90;;;;;;4955956;29;20450;-87
2024/02/18 04:17:18;;;;;;;3.60;1.83;;;5.90;99.90;;;;;;4964980;29;20435;-87
2024/02/18 04:19:44;;;;;;;0.97;0.87;;;6.00;99.90;;;;;;4958177;29;20494;-87
2024/02/18 04:22:12;;;;;;;4.07;2.10;;;5.90;99.90;;;;;;4955571;29;20454;-87
2024/02/18 04:24:40;;;;;;;1.37;1.27;;;5.90;99.90;;;;;;4955495;28;20552;-87
2024/02/18 04:27:08;;;;;;;5.43;2.03;;;5.90;99.90;;;;;;4955227;29;20447;-87
2024/02/18 04:29:37;;;;;;;3.10;1.50;;;5.90;99.90;;;;;;4955660;28;20470;-87
2024/02/18 04:32:04;;;;;;;2.03;1.77;;;5.80;99.90;;;;;;4955445;29;20446;-87
2024/02/18 04:34:31;;;;;;;4.03;1.80;;;5.80;99.90;;;;;;4955453;29;20482;-87
2024/02/18 04:36:58;;;;;;;1.37;1.27;;;5.80;99.90;;;;;;4964288;29;20430;-87
2024/02/18 04:39:25;;;;;;;4.40;1.60;;;5.70;99.90;;;;;;4965972;28;20481;-87
2024/02/18 04:41:51;;;;;;;1.40;1.20;;;5.70;99.90;;;;;;4956005;29;20462;-87
2024/02/18 04:44:18;;;;;;;1.93;0.93;;;5.80;99.90;;;;;;4955165;29;20465;-87
2024/02/18 04:46:46;;;;;;;3.10;1.47;;;5.80;99.90;;;;;;4955486;29;20442;-88
2024/02/18 04:49:14;;;;;;;1.90;1.53;;;6.20;99.90;;;;;;4955270;29;20458;-87
2024/02/18 04:51:40;;;;;;;1.50;0.87;;;5.90;99.90;;;;;;4955542;29;20525;-86
2024/02/18 04:54:07;;;;;;;9.37;2.67;;;6.00;99.90;;;;;;4955271;29;20473;-87
2024/02/18 04:56:34;;;;;;;1.60;1.50;;;6.00;99.90;;;;;;4955270;29;20442;-86
2024/02/18 04:59:00;;;;;;;10.13;1.83;;;6.10;99.90;;;;;;4956603;29;20453;-87
2024/02/18 05:01:27;;;;;;;2.60;1.30;;;7.20;99.90;;;;;;4965123;29;20493;-87
2024/02/18 05:03:55;;;;;;;1.53;1.43;;;6.20;99.90;;;;;;4964455;29;20457;-87
2024/02/18 05:06:22;;;;;;;3.13;1.43;;;6.30;99.90;;;;;;4965107;29;20477;-87
2024/02/18 05:08:49;;;;;;;4.33;1.80;;;6.20;99.90;;;;;;4965777;29;20477;-87
2024/02/18 05:11:16;;;;;;;10.13;1.93;;;6.20;99.90;;;;;;4966794;29;20489;-87
2024/02/18 05:13:42;;;;;;;5.57;2.57;;;6.20;99.90;;;;;;4967199;28;20451;-87
2024/02/18 05:16:09;;;;;;;1.40;1.30;;;6.10;99.90;;;;;;4964053;29;20439;-87
2024/02/18 05:18:36;;;;;;;3.77;1.93;;;6.10;99.90;;;;;;4956558;29;20450;-87
2024/02/18 05:21:05;;;;;;;1.90;1.67;;;6.10;99.90;;;;;;4957096;28;20484;-87
2024/02/18 05:23:32;;;;;;;2.80;2.57;;;6.00;99.90;;;;;;4958115;29;20438;-87
2024/02/18 05:25:59;;;;;;;4.77;2.07;;;6.00;99.90;;;;;;4959204;29;20493;-87
2024/02/18 05:28:26;;;;;;;1.83;1.10;;;5.90;99.90;;;;;;4959241;29;20453;-87
2024/02/18 05:30:53;;;;;;;1.90;1.60;;;5.90;99.90;;;;;;4958681;29;20463;-87
2024/02/18 05:33:20;;;;;;;4.27;1.77;;;5.90;99.90;;;;;;4958452;29;20450;-87
2024/02/18 05:35:47;;;;;;;4.00;2.20;;;5.90;99.90;;;;;;4958564;29;20457;-87
2024/02/18 05:38:15;;;;;;;5.27;2.10;;;5.90;99.90;;;;;;4965944;29;20549;-87
2024/02/18 05:40:42;;;;;;;1.90;1.07;;;5.90;99.90;;;;;;4958749;29;21025;-87
2024/02/18 05:43:09;;;;;;;4.10;2.83;;;5.90;99.90;;;;;;4957884;29;20967;-86
2024/02/18 05:45:36;;;;;;;6.83;2.83;;;5.80;99.90;;;;;;4958089;28;20458;-88
2024/02/18 05:48:03;;;;;;;6.93;1.47;;;5.80;99.90;;;;;;4958272;29;20529;-87
2024/02/18 05:50:30;;;;;;;3.30;2.10;;;5.80;99.90;;;;;;4957984;29;20470;-87
2024/02/18 05:52:56;;;;;;;4.27;2.33;;;5.80;99.90;;;;;;4958009;29;20458;-86
2024/02/18 05:55:24;;;;;;;2.30;1.27;;;5.80;99.90;;;;;;4958216;29;20489;-87
2024/02/18 05:57:51;;;;;;;3.67;1.90;;;5.70;99.90;;;;;;4958023;29;20927;-87
2024/02/18 06:00:18;;;;;;;9.63;2.63;;;5.70;99.90;;;;;;4958160;29;20485;-87
2024/02/18 06:02:45;;;;;;;2.27;1.43;;;5.70;99.90;;;;;;4957661;29;20454;-86
2024/02/18 06:05:15;;;;;;;12.43;2.00;;;5.70;99.90;;;;;;4957949;29;20454;-87
2024/02/18 06:07:44;;;;;;;4.50;1.60;;;5.80;99.90;;;;;;4957681;29;20439;-87
2024/02/18 06:10:11;;;;;;;4.57;3.30;;;5.80;99.90;;;;;;4957282;29;20489;-87
2024/02/18 06:12:40;;;;;;;2.27;2.07;;;5.80;99.90;;;;;;4957476;29;20441;-87
2024/02/18 06:15:07;;;;;;;3.80;2.33;;;5.80;99.90;;;;;;4957767;29;20450;-87
2024/02/18 06:17:34;;;;;;;3.03;2.17;;;5.90;99.90;;;;;;4957196;29;20459;-87
2024/02/18 06:20:02;;;;;;;9.40;1.90;;;5.90;99.90;;;;;;4957497;29;20500;-87
2024/02/18 06:22:29;;;;;;;2.00;1.73;;;5.90;99.90;;;;;;4957540;29;20486;-87
2024/02/18 06:24:56;;;;;;;2.90;1.90;;;5.90;99.90;;;;;;4957334;29;20817;-87
2024/02/18 06:27:23;;;;;;;4.37;1.93;;;6.00;99.90;;;;;;4957668;29;20450;-86
2024/02/18 06:29:51;;;;;;;2.90;2.30;;;6.10;99.90;;;;;;4957424;29;20478;-86
2024/02/18 06:32:18;;;;;;;5.10;2.40;;;6.10;99.90;;;;;;4957539;29;20447;-87
2024/02/18 06:34:45;;;;;;;3.10;2.57;;;6.10;99.90;;;;;;4956983;28;20497;-87
2024/02/18 06:37:13;;;;;;;3.10;2.20;;;6.10;99.90;;;;;;4957102;29;20932;-86
2024/02/18 06:39:40;;;;;;;4.63;2.10;;;6.10;99.90;;;;;;4957550;29;20470;-86
2024/02/18 06:42:08;;;;;;;4.97;2.20;;;6.20;99.90;;;;;;4957730;29;20500;-87
2024/02/18 06:44:34;;;;;;;3.50;1.87;;;6.30;99.90;;;;;;4957095;29;20465;-87
2024/02/18 06:47:02;;;;;;;2.10;1.77;;;6.30;99.90;;;;;;4957107;29;20446;-87
2024/02/18 06:49:30;;;;;;;5.07;3.03;;;6.40;99.90;;;;;;4957072;29;20477;-86
2024/02/18 06:51:58;;;;;;;3.63;2.20;;;6.40;99.90;;;;;;4973715;28;20501;-86
2024/02/18 06:54:24;;;;;;;3.33;2.23;;;6.40;99.90;;;;;;4959826;29;20796;-87
2024/02/18 06:56:51;;;;;;;5.40;2.70;;;6.40;99.90;;;;;;4957003;29;20473;-86
2024/02/18 06:59:18;;;;;;;2.43;1.73;;;6.50;99.90;;;;;;4958069;29;20482;-87
2024/02/18 07:01:45;;;;;;;4.70;3.73;;;6.60;99.90;;;;;;4956952;29;20849;-87
2024/02/18 07:04:13;;;;;;;7.83;2.20;;;6.60;99.90;;;;;;4956708;29;20453;-86
2024/02/18 07:06:40;;;;;;;4.07;2.67;;;6.60;99.90;;;;;;4956943;28;20450;-85
2024/02/18 07:09:07;;;;;;;4.10;1.97;;;6.60;99.90;;;;;;4956420;29;20442;-85
2024/02/18 07:11:34;;;;;;;1.77;1.67;;;6.60;99.90;;;;;;4956681;29;20478;-86
2024/02/18 07:14:00;;;;;;;3.37;2.70;;;6.60;99.90;;;;;;4957206;29;20442;-86
2024/02/18 07:16:27;;;;;;;1.67;1.57;;;6.70;99.90;;;;;;4957364;29;20459;-85
2024/02/18 07:18:54;;;;;;;1.80;1.60;;;6.70;99.90;;;;;;4956975;29;20465;-85
2024/02/18 07:21:22;;;;;;;3.50;1.90;;;6.80;99.90;;;;;;4956608;29;20486;-86
2024/02/18 07:23:50;;;;;;;9.40;3.13;;;7.00;99.90;;;;;;4956601;29;20928;-86
2024/02/18 07:26:17;;;;;;;3.40;2.10;;;7.10;99.90;;;;;;4956586;29;20493;-85
2024/02/18 07:28:44;;;;;;;5.70;2.13;;;7.20;99.90;;;;;;4956870;29;20452;-86
2024/02/18 07:31:11;;;;;;;2.20;1.70;;;7.30;99.90;;;;;;4956896;29;20458;-86
2024/02/18 07:33:37;;;;;;;3.10;1.57;;;7.40;99.90;;;;;;4956567;29;20435;-86
2024/02/18 07:36:04;;;;;;;4.00;2.60;;;7.50;99.90;;;;;;4956658;29;20465;-86
2024/02/18 07:38:32;;;;;;;2.27;2.03;;;7.50;99.90;;;;;;4956689;29;20454;-86
2024/02/18 07:40:59;;;;;;;5.30;3.10;;;7.50;99.90;;;;;;4956485;29;20475;-85
2024/02/18 07:43:26;;;;;;;2.47;2.20;;;7.60;99.90;;;;;;4956932;29;20477;-85
2024/02/18 07:45:53;;;;;;;6.40;3.10;;;7.60;99.90;;;;;;4956435;28;20450;-85
2024/02/18 07:48:20;;;;;;;3.93;2.50;;;7.60;99.90;;;;;;4956449;29;20454;-85
2024/02/18 07:50:46;;;;;;;4.63;1.40;;;7.60;99.90;;;;;;4957135;29;20496;-85
2024/02/18 07:53:13;;;;;;;4.87;1.60;;;7.60;99.90;;;;;;4959666;29;20548;-86
2024/02/18 07:55:41;;;;;;;3.90;2.17;;;7.60;99.90;;;;;;4960583;29;20457;-86
2024/02/18 07:58:08;;;;;;;12.47;1.63;;;7.80;99.90;;;;;;4958086;29;20450;-87
2024/02/18 08:00:35;;;;;;;2.97;1.57;;;7.90;99.90;;;;;;4956439;29;21000;-85
2024/02/18 08:03:01;;;;;;;2.67;1.50;;;8.00;99.90;;;;;;4956573;29;20461;-85
2024/02/18 08:05:28;;;;;;;2.17;1.60;;;8.10;99.90;;;;;;4956630;29;20536;-85
2024/02/18 08:07:55;;;;;;;3.50;1.77;;;8.30;99.90;;;;;;4957078;29;20446;-85
2024/02/18 08:10:22;;;;;;;1.67;1.30;;;8.40;99.90;;;;;;4956306;29;20486;-86
2024/02/18 08:12:50;;;;;;;5.33;1.93;;;8.50;99.90;;;;;;4957245;29;20446;-86
2024/02/18 08:15:16;;;;;;;2.80;1.83;;;8.50;99.90;;;;;;4957744;28;20446;-85
2024/02/18 08:17:43;;;;;;;3.23;1.83;;;8.60;99.90;;;;;;4957719;28;20453;-85
2024/02/18 08:20:11;;;;;;;5.37;2.77;;;8.60;99.90;;;;;;4957642;29;20462;-85
2024/02/18 08:22:38;;;;;;;2.50;1.70;;;8.70;99.90;;;;;;4956612;29;20569;-85
2024/02/18 08:25:06;;;;;;;3.20;1.90;;;8.80;99.90;;;;;;4957389;29;20450;-85
2024/02/18 08:27:33;;;;;;;7.60;3.60;;;8.90;99.90;;;;;;4956457;29;20457;-85
2024/02/18 08:30:02;;;;;;;5.93;2.20;;;9.10;99.90;;;;;;4957150;28;20470;-85
2024/02/18 08:32:29;;;;;;;4.67;2.70;;;9.40;99.90;;;;;;4957429;29;20446;-85
2024/02/18 08:34:56;;;;;;;1.90;1.80;;;9.60;99.90;;;;;;4958089;29;20459;-85
2024/02/18 08:37:23;;;;;;;4.13;2.60;;;9.80;99.90;;;;;;4959031;29;20450;-85
2024/02/18 08:39:50;;;;;;;2.53;2.33;;;10.00;99.90;;;;;;4959102;29;20988;-85
2024/02/18 08:42:17;;;;;;;2.57;1.93;;;10.20;99.90;;;;;;4960445;29;20474;-85
2024/02/18 08:44:44;;;;;;;7.70;2.03;;;10.40;99.90;;;;;;4961002;29;20462;-84
2024/02/18 08:47:12;;;;;;;2.50;1.63;;;10.50;99.90;;;;;;4960822;29;20446;-84
2024/02/18 08:49:41;;;;;;;2.33;2.00;;;10.60;99.90;;;;;;4961129;29;20529;-84
2024/02/18 08:52:08;;;;;;;4.37;2.37;;;10.70;99.90;;;;;;4960942;29;20553;-84
2024/02/18 08:54:35;;;;;;;3.47;2.33;;;10.90;99.90;;;;;;4960105;29;20457;-84
2024/02/18 08:57:02;;;;;;;4.80;2.57;;;11.00;99.90;;;;;;4962559;28;20442;-84
2024/02/18 08:59:28;;;;;;;3.00;2.10;;;11.10;99.90;;;;;;4964941;29;20470;-84
2024/02/18 09:01:56;;;;;;;4.03;2.10;;;11.30;99.90;;;;;;4963770;29;20923;-84
2024/02/18 09:04:24;;;;;;;4.00;2.23;;;11.50;99.90;;;;;;4962960;29;20446;-84
2024/02/18 09:06:51;;;;;;;3.00;1.97;;;11.70;99.90;;;;;;4965349;29;20461;-85
2024/02/18 09:09:18;;;;;;;4.97;2.20;;;11.90;99.90;;;;;;4973209;29;20442;-86
2024/02/18 09:11:45;;;;;;;4.40;2.60;;;12.10;99.90;;;;;;4972087;29;20485;-84
2024/02/18 09:14:11;;;;;;;3.60;2.53;;;12.50;99.90;;;;;;4969044;28;20447;-83
2024/02/18 09:16:38;;;;;;;3.63;2.07;;;12.80;99.90;;;;;;4959065;28;20450;-84
2024/02/18 09:19:05;;;;;;;4.77;2.67;;;13.00;99.90;;;;;;4959545;29;20446;-84
2024/02/18 09:21:34;;;;;;;3.93;2.77;;;13.40;99.90;;;;;;4959269;28;21022;-84
2024/02/18 09:24:00;;;;;;;3.47;2.73;;;13.60;99.90;;;;;;4958650;29;20467;-84
2024/02/18 09:26:28;;;;;;;3.23;2.93;;;13.90;99.90;;;;;;4958937;29;20453;-84
2024/02/18 09:28:55;;;;;;;3.40;2.47;;;14.10;99.90;;;;;;4959308;29;20450;-84
2024/02/18 09:31:21;;;;;;;7.97;2.93;;;14.40;99.90;;;;;;4959625;29;20462;-85
2024/02/18 09:33:48;;;;;;;3.00;2.33;;;14.80;99.90;;;;;;4958559;29;20931;-84
2024/02/18 09:36:15;;;;;;;3.57;2.13;;;15.30;99.90;;;;;;4958678;29;20537;-85
2024/02/18 09:38:43;;;;;;;4.47;2.93;;;16.20;99.90;;;;;;4958598;29;20838;-84
2024/02/18 09:41:15;;;;;;;2.30;2.10;;;16.90;99.90;;;;;;4958486;29;20492;-84
2024/02/18 09:43:45;;;;;;;5.40;2.37;;;17.20;99.90;;;;;;4958519;29;20442;-84
2024/02/18 09:46:13;;;;;;;3.43;2.77;;;17.50;99.90;;;;;;4958609;29;20423;-84
2024/02/18 09:48:39;;;;;;;3.73;2.70;;;17.60;99.90;;;;;;4958986;29;20450;-84
2024/02/18 09:51:06;;;;;;;4.10;3.00;;;17.50;99.90;;;;;;4958952;29;20488;-84
2024/02/18 09:53:34;;;;;;;4.80;3.90;;;16.70;99.90;;;;;;4958998;29;20199;-84
2024/02/18 09:56:02;;;;;;;3.23;2.93;;;16.60;99.90;;;;;;4958412;29;20451;-84
2024/02/18 09:58:29;;;;;;;3.00;2.60;;;16.50;99.90;;;;;;4958339;29;20446;-85
2024/02/18 10:00:59;;;;;;;4.67;2.90;;;16.40;99.90;;;;;;4958643;29;20577;-84
2024/02/18 10:03:26;;;;;;;3.00;2.60;;;16.50;99.90;;;;;;4959401;29;20863;-84
2024/02/18 10:05:52;;;;;;;8.70;3.20;;;16.70;99.90;;;;;;4959441;29;20438;-84
2024/02/18 10:08:19;;;;;;;2.93;2.30;;;16.70;99.90;;;;;;4957653;28;20461;-84
2024/02/18 10:10:46;;;;;;;6.57;2.43;;;16.80;99.90;;;;;;4958516;29;20489;-85
2024/02/18 10:13:14;;;;;;;3.03;2.57;;;16.90;99.90;;;;;;4958922;29;20497;-85
2024/02/18 10:15:41;;;;;;;2.60;2.37;;;16.80;99.90;;;;;;4958383;29;20464;-85
2024/02/18 10:18:09;;;;;;;4.80;3.47;;;16.60;99.90;;;;;;4961247;29;20451;-85
2024/02/18 10:20:36;;;;;;;3.57;3.07;;;16.40;99.90;;;;;;4959686;29;20987;-84
2024/02/18 10:23:04;;;;;;;3.33;2.27;;;16.10;99.90;;;;;;4958940;29;20497;-84
2024/02/18 10:25:31;;;;;;;4.00;2.70;;;15.80;99.90;;;;;;4959490;29;20439;-84
2024/02/18 10:27:58;;;;;;;5.17;3.50;;;15.60;99.90;;;;;;4960049;29;20447;-85
2024/02/18 10:30:26;;;;;;;3.67;2.90;;;15.40;99.90;;;;;;4958094;29;20493;-85
2024/02/18 10:32:54;;;;;;;2.63;2.43;;;15.20;99.90;;;;;;4958283;29;20427;-85
2024/02/18 10:35:20;;;;;;;2.00;1.73;;;15.00;99.90;;;;;;4958571;29;20478;-85
2024/02/18 10:37:53;;;;;;;3.27;2.60;;;15.10;99.90;;;;;;4958676;29;20430;-85
2024/02/18 10:40:27;;;;;;;2.80;2.20;;;15.20;99.90;;;;;;4958573;29;20510;-85
2024/02/18 10:42:59;;;;;;;5.30;3.10;;;15.50;99.90;;;;;;4959182;28;20502;-85
2024/02/18 10:45:28;;;;;;;4.20;2.63;;;15.60;99.90;;;;;;4959303;29;20439;-85
2024/02/18 10:47:56;;;;;;;3.20;2.90;;;15.50;99.90;;;;;;4961238;29;20450;-85
2024/02/18 10:50:27;;;;;;;2.50;2.10;;;15.40;99.90;;;;;;4964368;29;20466;-85
2024/02/18 10:53:02;;;;;;;4.50;2.10;;;15.10;99.90;;;;;;4964637;29;20431;-85
2024/02/18 10:55:33;;;;;;;2.43;1.93;;;14.90;99.90;;;;;;4964172;29;20448;-85
2024/02/18 10:58:05;;;;;;;3.30;1.90;;;14.70;99.90;;;;;;4963526;29;20434;-85
2024/02/18 11:00:37;;;;;;;2.00;1.63;;;14.50;99.90;;;;;;4962860;28;20853;-85
2024/02/18 11:03:11;;;;;;;2.40;1.70;;;14.20;99.90;;;;;;4962741;29;20478;-85
2024/02/18 11:05:39;;;;;;;1.60;1.50;;;14.20;99.90;;;;;;4960822;29;20444;-85
2024/02/18 11:08:08;;;;;;;1.83;1.63;;;14.00;99.90;;;;;;4961483;29;20438;-84
2024/02/18 11:10:35;;;;;;;2.77;1.93;;;14.20;99.90;;;;;;4961275;29;20478;-85
2024/02/18 11:13:04;;;;;;;2.37;2.17;;;14.10;99.90;;;;;;4960896;28;20447;-85
2024/02/18 11:15:33;;;;;;;2.37;1.90;;;14.20;99.90;;;;;;4961292;29;20458;-85
2024/02/18 11:18:01;;;;;;;4.37;1.80;;;14.10;99.90;;;;;;4963173;28;20460;-85
2024/02/18 11:20:29;;;;;;;3.87;2.27;;;14.20;99.90;;;;;;4963681;28;20995;-85
2024/02/18 11:22:57;;;;;;;2.30;2.10;;;14.40;99.90;;;;;;4963902;29;20577;-85
2024/02/18 11:25:23;;;;;;;2.93;2.00;;;14.30;99.90;;;;;;4970830;29;20469;-85
2024/02/18 11:27:51;;;;;;;2.40;1.90;;;14.30;99.90;;;;;;4972008;28;20457;-84
2024/02/18 11:30:18;;;;;;;2.37;1.67;;;14.40;99.90;;;;;;4956723;29;20566;-85
2024/02/18 11:32:46;;;;;;;3.90;2.53;;;14.40;99.90;;;;;;4957042;29;20458;-84
2024/02/18 11:35:17;;;;;;;8.37;2.10;;;14.50;99.90;;;;;;4956505;29;20983;-85
2024/02/18 11:37:44;;;;;;;2.60;2.10;;;14.60;99.90;;;;;;4956614;29;20434;-84
2024/02/18 11:40:17;;;;;;;3.00;1.90;;;14.60;99.90;;;;;;4956309;29;21007;-85
2024/02/18 11:42:44;;;;;;;2.07;1.70;;;14.70;99.90;;;;;;4956709;29;20506;-85
2024/02/18 11:45:12;;;;;;;6.23;2.13;;;14.80;99.90;;;;;;4956620;29;20450;-85
2024/02/18 11:47:44;;;;;;;4.70;1.80;;;14.70;99.90;;;;;;4956584;29;20447;-85
2024/02/18 11:50:12;;;;;;;2.43;2.17;;;14.60;99.90;;;;;;4957126;29;20838;-84
2024/02/18 11:52:41;;;;;;;5.53;1.93;;;14.40;99.90;;;;;;4957133;29;20435;-84
2024/02/18 11:55:18;;;;;;;2.60;2.40;;;14.30;99.90;;;;;;4957806;29;20500;-84
2024/02/18 11:57:46;;;;;;;2.20;1.97;;;14.40;99.90;;;;;;4957075;29;20438;-84
2024/02/18 12:00:14;;;;;;;3.70;2.87;;;14.40;99.90;;;;;;4956748;29;20454;-84
2024/02/18 12:02:45;;;;;;;5.83;2.80;;;14.40;99.90;;;;;;4956194;29;20474;-84
2024/02/18 12:05:15;;;;;;;4.93;2.90;;;14.30;99.90;;;;;;4957203;29;20456;-84
2024/02/18 12:07:42;;;;;;;3.90;2.17;;;14.00;99.90;;;;;;4958650;29;20441;-85
2024/02/18 12:10:09;;;;;;;4.90;3.03;;;14.00;99.90;;;;;;4957081;29;20473;-85
2024/02/18 12:12:36;;;;;;;4.03;3.00;;;13.90;99.90;;;;;;4958504;29;20442;-85
2024/02/18 12:15:03;;;;;;;7.63;3.10;;;13.80;99.90;;;;;;4958629;29;20523;-85
2024/02/18 12:17:30;;;;;;;3.60;2.63;;;13.80;99.90;;;;;;4956460;29;20450;-84
2024/02/18 12:19:57;;;;;;;6.30;3.20;;;13.80;99.90;;;;;;4956344;29;20476;-84
2024/02/18 12:22:27;;;;;;;6.10;3.40;;;13.80;99.90;;;;;;4956279;29;20488;-84
2024/02/18 12:24:56;;;;;;;5.03;2.80;;;13.80;99.90;;;;;;4958116;28;20924;-85
2024/02/18 12:27:23;;;;;;;8.03;4.33;;;13.70;99.90;;;;;;4959198;28;20502;-85
2024/02/18 12:29:51;;;;;;;5.67;2.73;;;13.70;99.90;;;;;;4958606;28;20477;-84
2024/02/18 12:32:19;;;;;;;4.63;3.10;;;13.70;99.90;;;;;;4963417;28;20940;-84
2024/02/18 12:34:48;;;;;;;6.67;3.33;;;13.80;99.90;;;;;;4965290;29;20454;-84
2024/02/18 12:37:15;;;;;;;5.20;3.10;;;13.90;99.90;;;;;;4963630;28;20848;-84
2024/02/18 12:39:44;;;;;;;5.87;2.67;;;13.80;99.90;;;;;;4961853;29;20482;-84
2024/02/18 12:42:11;;;;;;;4.83;2.13;;;13.60;99.90;;;;;;4961883;29;20979;-84
2024/02/18 12:44:38;;;;;;;3.23;1.87;;;13.60;99.90;;;;;;4962370;28;20438;-84
2024/02/18 12:47:05;;;;;;;2.70;1.80;;;13.60;99.90;;;;;;4961810;29;20446;-84
2024/02/18 12:49:32;;;;;;;3.20;2.30;;;13.70;99.90;;;;;;4962162;28;20844;-84
2024/02/18 12:52:06;;;;;;;2.77;2.03;;;13.60;99.90;;;;;;4961797;29;20454;-84
2024/02/18 12:54:33;;;;;;;3.17;2.50;;;13.60;99.90;;;;;;4961810;28;20955;-84